Time;durP1;ratioP1;P1;durP2;ratioP2;P2;SDS_P1;SDS_P2;PMS_P1;PMS_P2;Temp;Humidity;BMP_temperature;BMP_pressure;BME280_temperature;BME280_humidity;BME280_pressure;Samples;Min_cycle;Max_cycle;Signal;HPM_P1;HPM_P2
2022/05/15 00:01:59;;;;;;;9.70;3.50;;;;;10.80;97641.20;;;;111007;1251;41478;-67
2022/05/15 00:04:28;;;;;;;8.50;3.20;;;;;10.80;97640.80;;;;110840;1251;41319;-67
2022/05/15 00:07:00;;;;;;;9.30;2.80;;;;;10.72;97642.80;;;;111013;1250;41139;-67
2022/05/15 00:09:29;;;;;;;7.50;2.70;;;;;10.70;97641.60;;;;110893;1251;41323;-68
2022/05/15 00:11:59;;;;;;;10.80;3.60;;;;;10.70;97646.00;;;;110794;1253;41147;-67
2022/05/15 00:14:29;;;;;;;11.70;3.90;;;;;10.70;97645.60;;;;110854;1250;41339;-66
2022/05/15 00:17:00;;;;;;;6.60;2.80;;;;;10.60;97643.20;;;;110781;1250;41149;-66
2022/05/15 00:19:30;;;;;;;7.90;2.90;;;;;10.60;97641.80;;;;110687;1251;42171;-66
2022/05/15 00:22:00;;;;;;;7.20;2.50;;;;;10.54;97646.40;;;;110878;1250;42366;-66
2022/05/15 00:24:30;;;;;;;9.30;2.70;;;;;10.50;97649.20;;;;110782;1251;41136;-66
2022/05/15 00:27:01;;;;;;;8.40;3.40;;;;;10.50;97649.00;;;;110645;1251;41145;-67
2022/05/15 00:29:32;;;;;;;7.90;3.30;;;;;10.44;97650.00;;;;110704;1251;41183;-66
2022/05/15 00:32:01;;;;;;;6.10;2.40;;;;;10.40;97651.60;;;;110683;1251;42418;-67
2022/05/15 00:34:31;;;;;;;8.10;3.30;;;;;10.30;97647.80;;;;110672;1251;41164;-67
2022/05/15 00:37:00;;;;;;;8.20;3.50;;;;;10.30;97646.60;;;;110679;1250;41157;-66
2022/05/15 00:39:31;;;;;;;11.20;3.90;;;;;10.24;97647.80;;;;110693;1251;41146;-67
2022/05/15 00:42:00;;;;;;;7.70;3.50;;;;;10.20;97647.20;;;;110626;1252;41193;-67
2022/05/15 00:44:31;;;;;;;8.10;2.90;;;;;10.10;97652.20;;;;110720;1251;41154;-67
2022/05/15 00:47:04;;;;;;;7.70;2.70;;;;;10.10;97655.40;;;;110759;1251;41163;-67
2022/05/15 00:49:37;;;;;;;;;;;;;10.04;97652.60;;;;110675;1251;41179;-67
2022/05/15 00:52:15;;;;;;;8.30;3.40;;;;;10.00;97653.00;;;;110675;1250;41969;-66
2022/05/15 00:54:52;;;;;;;8.10;2.90;;;;;10.00;97656.00;;;;110620;1253;42702;-66
2022/05/15 00:57:30;;;;;;;6.70;2.60;;;;;10.00;97658.20;;;;110889;1250;41253;-67
2022/05/15 01:00:04;;;;;;;7.40;2.80;;;;;9.94;97658.80;;;;110895;1250;41153;-67
2022/05/15 01:02:41;;;;;;;9.60;4.40;;;;;9.90;97660.80;;;;110793;1250;41613;-67
2022/05/15 01:05:15;;;;;;;12.60;4.30;;;;;9.92;97657.60;;;;110678;1250;42068;-68
2022/05/15 01:07:46;;;;;;;10.80;4.10;;;;;9.90;97656.80;;;;110625;1251;41804;-67
2022/05/15 01:10:16;;;;;;;8.90;3.40;;;;;9.90;97654.40;;;;110741;1252;41147;-69
2022/05/15 01:12:48;;;;;;;9.10;3.80;;;;;9.90;97654.40;;;;110769;1251;41165;-66
2022/05/15 01:15:24;;;;;;;9.10;4.20;;;;;9.90;97652.00;;;;110550;1252;42075;-66
2022/05/15 01:17:56;;;;;;;8.60;3.90;;;;;9.74;97655.60;;;;110570;1253;41358;-66
2022/05/15 01:20:30;;;;;;;11.60;3.60;;;;;9.70;97654.00;;;;110783;1250;41598;-67
2022/05/15 01:23:03;;;;;;;8.50;3.70;;;;;9.60;97654.60;;;;110762;1250;41159;-66
2022/05/15 01:25:37;;;;;;;7.30;3.40;;;;;9.60;97653.00;;;;110554;1250;41612;-67
2022/05/15 01:28:12;;;;;;;8.60;3.40;;;;;9.60;97654.60;;;;110791;1250;41319;-66
2022/05/15 01:30:46;;;;;;;8.10;3.60;;;;;9.60;97656.40;;;;110712;1250;41139;-66
2022/05/15 01:33:21;;;;;;;9.70;3.70;;;;;9.60;97653.40;;;;110572;1253;41252;-66
2022/05/15 01:35:53;;;;;;;11.80;4.30;;;;;9.50;97657.00;;;;110775;1250;42094;-66
2022/05/15 01:38:24;;;;;;;;;;;;;9.48;97654.80;;;;110900;1250;41250;-67
2022/05/15 01:40:55;;;;;;;9.10;4.20;;;;;9.30;97664.20;;;;110849;1250;41146;-67
2022/05/15 01:43:25;;;;;;;13.30;4.40;;;;;9.26;97660.60;;;;110649;1251;41282;-67
2022/05/15 01:45:56;;;;;;;10.00;3.90;;;;;9.20;97660.00;;;;110799;1250;41275;-66
2022/05/15 01:48:27;;;;;;;8.50;3.90;;;;;9.20;97662.00;;;;110714;1251;41259;-66
2022/05/15 01:50:59;;;;;;;9.00;3.60;;;;;9.20;97662.20;;;;110550;1253;41273;-66
2022/05/15 01:53:30;;;;;;;9.60;3.30;;;;;9.20;97659.00;;;;110656;1251;41282;-68
2022/05/15 01:56:02;;;;;;;7.60;3.20;;;;;9.20;97662.40;;;;110729;1253;41259;-68
2022/05/15 01:58:33;;;;;;;8.50;3.20;;;;;9.20;97662.80;;;;110655;1253;41508;-66
2022/05/15 02:01:04;;;;;;;7.40;3.30;;;;;9.20;97664.60;;;;110639;1248;41161;-66
2022/05/15 02:03:34;;;;;;;7.10;3.00;;;;;9.20;97669.20;;;;110616;1252;41262;-67
2022/05/15 02:06:05;;;;;;;8.60;3.00;;;;;9.20;97665.60;;;;110911;1250;41257;-67
2022/05/15 02:08:36;;;;;;;7.20;3.00;;;;;9.20;97664.20;;;;110608;1250;42611;-67
2022/05/15 02:11:08;;;;;;;7.40;2.90;;;;;9.16;97662.80;;;;110681;1252;41624;-67
2022/05/15 02:13:38;;;;;;;6.30;2.70;;;;;9.10;97658.00;;;;110733;1251;41221;-67
2022/05/15 02:16:08;;;;;;;8.40;3.10;;;;;9.10;97656.80;;;;110851;1251;42002;-67
2022/05/15 02:18:39;;;;;;;7.70;3.10;;;;;9.10;97658.00;;;;110932;1250;41944;-67
2022/05/15 02:21:11;;;;;;;10.10;2.90;;;;;9.10;97662.40;;;;110639;1251;41260;-66
2022/05/15 02:23:41;;;;;;;7.70;3.20;;;;;9.00;97666.00;;;;110611;1251;41252;-67
2022/05/15 02:26:11;;;;;;;7.40;3.20;;;;;9.00;97661.40;;;;110663;1251;41268;-67
2022/05/15 02:28:42;;;;;;;7.70;3.10;;;;;9.00;97663.20;;;;110768;1251;41152;-67
2022/05/15 02:31:14;;;;;;;9.40;3.40;;;;;9.00;97664.80;;;;110671;1252;41267;-67
2022/05/15 02:33:44;;;;;;;6.00;2.60;;;;;9.00;97663.80;;;;110620;1251;41149;-65
2022/05/15 02:36:15;;;;;;;10.90;3.60;;;;;8.94;97664.80;;;;110880;1251;41188;-67
2022/05/15 02:38:49;;;;;;;6.70;3.10;;;;;8.96;97667.20;;;;110829;1250;41249;-67
2022/05/15 02:41:20;;;;;;;8.10;3.10;;;;;8.90;97670.60;;;;110885;1250;41146;-65
2022/05/15 02:43:50;;;;;;;8.30;3.20;;;;;8.90;97677.20;;;;110647;1251;41153;-66
2022/05/15 02:46:20;;;;;;;6.50;3.00;;;;;8.90;97676.20;;;;110752;1251;41174;-66
2022/05/15 02:51:40;;;;;;;8.90;4.10;;;;;8.80;97680.40;;;;110874;1250;41152;-67
2022/05/15 02:54:11;;;;;;;9.50;4.10;;;;;8.70;97676.20;;;;110553;1253;41174;-67
2022/05/15 02:56:42;;;;;;;10.60;4.10;;;;;8.60;97673.60;;;;110720;1250;41439;-67
2022/05/15 02:59:12;;;;;;;10.70;3.90;;;;;8.60;97679.60;;;;110896;1250;41162;-65
2022/05/15 03:01:43;;;;;;;13.00;3.90;;;;;8.52;97675.60;;;;110858;1251;41571;-67
2022/05/15 03:04:13;;;;;;;9.30;4.20;;;;;8.50;97672.20;;;;110889;1250;41147;-67
2022/05/15 03:06:43;;;;;;;9.70;4.40;;;;;8.46;97678.60;;;;110876;1250;42397;-66
2022/05/15 03:09:14;;;;;;;8.90;3.90;;;;;8.42;97679.60;;;;110518;1253;41266;-66
2022/05/15 03:11:44;;;;;;;;;;;;;8.40;97677.80;;;;110643;1252;41264;-67
2022/05/15 03:14:16;;;;;;;8.90;4.30;;;;;8.40;97681.40;;;;110822;1250;41413;-66
2022/05/15 03:16:47;;;;;;;9.60;4.20;;;;;8.40;97676.80;;;;110822;1250;41139;-66
2022/05/15 03:19:18;;;;;;;9.10;4.20;;;;;8.40;97675.40;;;;110899;1250;41707;-66
2022/05/15 03:21:48;;;;;;;9.00;4.20;;;;;8.42;97682.00;;;;110809;1251;41146;-68
2022/05/15 03:24:18;;;;;;;12.00;4.60;;;;;8.46;97679.40;;;;110829;1251;41179;-67
2022/05/15 03:26:48;;;;;;;9.60;3.80;;;;;8.50;97684.40;;;;110556;1252;41202;-67
2022/05/15 03:29:19;;;;;;;9.20;4.50;;;;;8.50;97686.20;;;;110611;1252;41855;-68
2022/05/15 03:31:50;;;;;;;10.00;4.60;;;;;8.50;97685.40;;;;110822;1250;41200;-67
2022/05/15 03:34:20;;;;;;;10.50;4.20;;;;;8.50;97685.20;;;;110789;1250;41794;-67
2022/05/15 03:36:51;;;;;;;8.80;3.90;;;;;8.56;97681.20;;;;110791;1250;41253;-66
2022/05/15 03:39:21;;;;;;;;;;;;;8.60;97687.60;;;;110868;1250;41183;-65
2022/05/15 03:41:52;;;;;;;9.30;3.50;;;;;8.64;97688.00;;;;110642;1253;41564;-66
2022/05/15 03:44:22;;;;;;;9.00;3.40;;;;;8.70;97693.20;;;;110855;1250;41142;-66
2022/05/15 03:46:52;;;;;;;7.70;3.20;;;;;8.80;97698.20;;;;110771;1250;41145;-66
2022/05/15 03:49:22;;;;;;;7.50;3.30;;;;;8.92;97699.00;;;;110600;1251;41280;-66
2022/05/15 03:51:53;;;;;;;7.40;3.20;;;;;9.04;97699.60;;;;110786;1250;42287;-66
2022/05/15 03:54:23;;;;;;;8.50;4.30;;;;;9.20;97702.00;;;;110612;1250;41640;-65
2022/05/15 03:56:53;;;;;;;12.50;4.60;;;;;9.30;97700.80;;;;110843;1250;41383;-66
2022/05/15 03:59:28;;;;;;;11.20;3.90;;;;;9.62;97692.00;;;;110969;1251;41775;-67
2022/05/15 04:01:59;;;;;;;10.50;4.70;;;;;10.36;97672.20;;;;110735;1250;41140;-66
2022/05/15 04:04:30;;;;;;;10.50;4.10;;;;;11.04;97677.00;;;;110797;1250;41165;-66
2022/05/15 04:07:00;;;;;;;8.60;4.10;;;;;11.84;97676.40;;;;110732;1251;41993;-67
2022/05/15 04:09:31;;;;;;;8.90;3.80;;;;;12.50;97670.80;;;;110516;1253;41669;-66
2022/05/15 04:12:02;;;;;;;8.50;3.40;;;;;13.24;97673.20;;;;110726;1251;41889;-66
2022/05/15 04:14:32;;;;;;;7.10;2.80;;;;;13.96;97673.20;;;;110714;1250;41132;-66
2022/05/15 04:17:03;;;;;;;7.30;3.00;;;;;14.62;97667.20;;;;110728;1251;41140;-67
2022/05/15 04:19:37;;;;;;;6.80;2.90;;;;;15.24;97664.00;;;;110717;1250;41263;-67
2022/05/15 04:22:09;;;;;;;6.10;2.70;;;;;15.80;97666.80;;;;110586;1251;41760;-66
2022/05/15 04:24:39;;;;;;;7.30;3.10;;;;;16.30;97668.40;;;;110610;1251;41439;-66
2022/05/15 04:27:08;;;;;;;6.30;2.70;;;;;16.80;97671.40;;;;110671;1252;41225;-66
2022/05/15 04:29:38;;;;;;;7.80;3.00;;;;;17.20;97669.80;;;;110631;1251;41721;-66
2022/05/15 04:32:08;;;;;;;8.00;3.70;;;;;17.56;97671.80;;;;110713;1250;41159;-66
2022/05/15 04:34:37;;;;;;;9.00;4.10;;;;;17.46;97670.60;;;;110679;1251;41156;-66
2022/05/15 04:37:07;;;;;;;9.40;3.80;;;;;17.22;97673.80;;;;110918;1250;43063;-66
2022/05/15 04:39:36;;;;;;;7.40;3.50;;;;;16.96;97676.60;;;;110841;1250;41138;-65
2022/05/15 04:42:07;;;;;;;7.60;3.20;;;;;17.16;97678.40;;;;110824;1251;41804;-66
2022/05/15 04:44:36;;;;;;;8.90;3.00;;;;;17.70;97680.80;;;;110834;1250;41496;-66
2022/05/15 04:47:06;;;;;;;6.90;3.10;;;;;18.32;97681.60;;;;110807;1250;41262;-66
2022/05/15 04:49:36;;;;;;;6.20;2.80;;;;;18.90;97680.80;;;;110826;1250;41249;-66
2022/05/15 04:52:06;;;;;;;5.90;2.70;;;;;19.30;97683.80;;;;110910;1250;41148;-66
2022/05/15 04:54:37;;;;;;;7.10;2.90;;;;;19.70;97683.40;;;;110729;1251;41733;-66
2022/05/15 04:57:06;;;;;;;6.60;2.80;;;;;20.10;97686.00;;;;110879;1251;41204;-66
2022/05/15 04:59:36;;;;;;;7.90;2.80;;;;;20.50;97683.40;;;;110808;1250;40748;-67
2022/05/15 05:02:05;;;;;;;8.20;3.00;;;;;21.00;97678.60;;;;110673;1251;41632;-67
2022/05/15 05:04:34;;;;;;;5.30;2.50;;;;;21.40;97678.40;;;;110856;1250;41537;-66
2022/05/15 05:07:04;;;;;;;6.50;2.80;;;;;21.80;97674.40;;;;111026;1250;41270;-67
2022/05/15 05:09:33;;;;;;;6.70;3.00;;;;;22.10;97677.80;;;;111007;1250;42378;-66
2022/05/15 05:12:03;;;;;;;6.70;2.80;;;;;22.22;97680.60;;;;110800;1250;41150;-66
2022/05/15 05:14:32;;;;;;;6.10;2.80;;;;;22.60;97683.00;;;;110874;1250;41558;-66
2022/05/15 05:17:02;;;;;;;7.30;3.00;;;;;22.92;97682.60;;;;110794;1250;41145;-66
2022/05/15 05:19:32;;;;;;;5.50;2.50;;;;;23.10;97680.80;;;;110748;1251;41245;-66
2022/05/15 05:22:01;;;;;;;5.50;2.30;;;;;23.40;97686.80;;;;110852;1250;41650;-67
2022/05/15 05:24:30;;;;;;;7.00;2.50;;;;;23.60;97681.20;;;;110710;1250;41322;-65
2022/05/15 05:26:59;;;;;;;6.50;2.60;;;;;23.66;97685.20;;;;110716;1251;41781;-65
2022/05/15 05:29:29;;;;;;;5.20;2.60;;;;;23.58;97681.40;;;;110734;1250;41507;-66
2022/05/15 05:31:58;;;;;;;6.70;2.80;;;;;23.34;97685.00;;;;110825;1250;41151;-66
2022/05/15 05:34:27;;;;;;;7.40;2.90;;;;;23.06;97682.20;;;;110857;1250;41127;-66
2022/05/15 05:36:59;;;;;;;8.00;3.20;;;;;22.90;97679.60;;;;110609;1250;41362;-66
2022/05/15 05:39:29;;;;;;;7.80;2.70;;;;;23.10;97675.60;;;;110920;1250;42196;-66
2022/05/15 05:41:59;;;;;;;5.90;2.40;;;;;23.40;97677.60;;;;110630;1251;41607;-66
2022/05/15 05:44:28;;;;;;;5.90;2.60;;;;;23.70;97677.60;;;;110704;1251;41366;-67
2022/05/15 05:46:58;;;;;;;5.30;2.30;;;;;23.90;97681.40;;;;110883;1250;41160;-67
2022/05/15 05:49:27;;;;;;;5.80;2.50;;;;;24.10;97678.20;;;;110865;1250;41262;-67
2022/05/15 05:51:56;;;;;;;5.70;2.30;;;;;24.10;97676.20;;;;110817;1250;41132;-66
2022/05/15 05:54:26;;;;;;;5.00;2.20;;;;;24.44;97678.80;;;;110776;1251;41719;-67
2022/05/15 05:56:57;;;;;;;6.60;2.30;;;;;24.80;97678.00;;;;110579;1253;41599;-65
2022/05/15 05:59:26;;;;;;;3.90;2.00;;;;;25.24;97675.80;;;;111022;1250;41626;-66
2022/05/15 06:01:55;;;;;;;5.70;2.10;;;;;25.42;97681.20;;;;110794;1251;42387;-65
2022/05/15 06:04:40;;;;;;;5.60;2.30;;;;;25.70;97683.40;;;;110975;1250;41552;-66
2022/05/15 06:07:12;;;;;;;6.60;2.30;;;;;25.78;97683.60;;;;110771;1251;42991;-66
2022/05/15 06:09:43;;;;;;;6.60;2.20;;;;;25.90;97689.00;;;;110733;1250;41245;-69
2022/05/15 06:12:15;;;;;;;8.50;2.70;;;;;26.14;97683.80;;;;110915;1250;42479;-67
2022/05/15 06:14:44;;;;;;;5.50;2.50;;;;;25.82;97686.40;;;;110741;1251;41257;-67
2022/05/15 06:17:13;;;;;;;8.80;2.30;;;;;24.92;97692.60;;;;110733;1252;41140;-67
2022/05/15 06:19:42;;;;;;;7.50;2.50;;;;;24.72;97690.00;;;;110746;1251;41614;-67
2022/05/15 06:22:12;;;;;;;6.70;2.50;;;;;25.02;97690.40;;;;110974;1250;40881;-67
2022/05/15 06:24:41;;;;;;;6.80;2.40;;;;;25.38;97687.40;;;;110810;1250;41249;-67
2022/05/15 06:27:11;;;;;;;5.00;2.10;;;;;25.60;97686.60;;;;110897;1250;41636;-66
2022/05/15 06:29:41;;;;;;;4.50;2.00;;;;;25.30;97693.20;;;;110721;1252;41472;-67
2022/05/15 06:32:10;;;;;;;5.70;2.00;;;;;25.00;97697.20;;;;110760;1250;42418;-67
2022/05/15 06:34:39;;;;;;;5.90;2.20;;;;;25.00;97694.60;;;;110832;1250;41719;-67
2022/05/15 06:37:08;;;;;;;5.40;2.00;;;;;25.20;97693.60;;;;110800;1250;41204;-67
2022/05/15 06:39:37;;;;;;;6.00;2.20;;;;;25.60;97692.20;;;;110707;1251;41549;-66
2022/05/15 06:42:06;;;;;;;7.50;2.60;;;;;26.00;97688.60;;;;110799;1250;41155;-67
2022/05/15 06:44:39;;;;;;;3.50;1.90;;;;;25.82;97691.00;;;;110543;1253;41260;-66
2022/05/15 06:47:08;;;;;;;6.10;2.30;;;;;26.22;97688.20;;;;110786;1250;41682;-67
2022/05/15 06:49:37;;;;;;;5.80;2.20;;;;;26.08;97691.00;;;;110868;1250;41161;-67
2022/05/15 06:52:07;;;;;;;5.30;2.20;;;;;25.80;97690.40;;;;110878;1251;41142;-67
2022/05/15 06:54:36;;;;;;;6.90;2.20;;;;;26.44;97687.20;;;;110829;1250;42630;-67
2022/05/15 06:59:58;;;;;;;4.40;1.90;;;;;26.54;97692.80;;;;110924;1250;41967;-66
2022/05/15 07:02:29;;;;;;;6.40;2.20;;;;;27.06;97689.20;;;;110766;1251;42523;-67
2022/05/15 07:04:58;;;;;;;6.80;2.20;;;;;27.04;97686.80;;;;110694;1250;41267;-67
2022/05/15 07:07:27;;;;;;;5.50;2.30;;;;;26.98;97683.00;;;;110813;1250;42378;-67
2022/05/15 07:09:56;;;;;;;5.70;2.40;;;;;26.58;97685.20;;;;110673;1250;41191;-68
2022/05/15 07:12:25;;;;;;;6.10;2.20;;;;;25.52;97691.20;;;;110637;1253;41152;-67
2022/05/15 07:14:54;;;;;;;4.00;1.90;;;;;25.32;97690.00;;;;110715;1252;42189;-67
2022/05/15 07:17:23;;;;;;;6.20;2.60;;;;;25.44;97692.00;;;;110807;1251;41523;-67
2022/05/15 07:19:52;;;;;;;6.40;2.70;;;;;24.98;97696.40;;;;110703;1253;41524;-67
2022/05/15 07:22:21;;;;;;;9.90;3.20;;;;;24.44;97701.00;;;;110623;1250;41603;-67
2022/05/15 07:24:51;;;;;;;7.30;2.60;;;;;24.02;97704.40;;;;110691;1252;41840;-66
2022/05/15 07:27:20;;;;;;;5.70;2.40;;;;;24.00;97704.00;;;;110747;1252;41133;-67
2022/05/15 07:29:49;;;;;;;7.50;2.90;;;;;23.90;97705.40;;;;110578;1252;42271;-67
2022/05/15 07:32:18;;;;;;;8.20;3.30;;;;;24.16;97702.80;;;;110701;1250;41139;-67
2022/05/15 07:34:47;;;;;;;9.30;2.90;;;;;24.08;97705.40;;;;110786;1250;41158;-66
2022/05/15 07:37:17;;;;;;;6.70;3.00;;;;;24.00;97702.80;;;;110765;1250;41332;-66
2022/05/15 07:39:46;;;;;;;9.30;3.30;;;;;24.30;97704.00;;;;110659;1251;42443;-66
2022/05/15 07:42:15;;;;;;;8.60;3.00;;;;;23.90;97707.20;;;;110704;1251;42031;-68
2022/05/15 07:44:45;;;;;;;9.40;2.90;;;;;23.46;97706.80;;;;110776;1251;41751;-67
2022/05/15 07:47:15;;;;;;;7.30;2.40;;;;;23.38;97708.60;;;;110721;1250;41147;-67
2022/05/15 07:49:47;;;;;;;7.00;2.50;;;;;23.76;97705.60;;;;110707;1252;41641;-67
2022/05/15 07:52:17;;;;;;;5.50;2.40;;;;;24.36;97702.40;;;;110485;1253;41198;-66
2022/05/15 07:54:46;;;;;;;9.10;2.90;;;;;24.98;97703.00;;;;110555;1252;41135;-67
2022/05/15 07:57:16;;;;;;;6.70;2.30;;;;;25.42;97702.60;;;;110607;1252;41168;-66
2022/05/15 07:59:46;;;;;;;5.80;2.50;;;;;25.82;97700.00;;;;110766;1251;41165;-70
2022/05/15 08:02:17;;;;;;;6.60;2.40;;;;;26.26;97697.20;;;;110607;1253;41256;-66
2022/05/15 08:10:20;;;;;;;4.60;1.90;;;;;27.40;97699.00;;;;110839;1250;41148;-67
2022/05/15 08:12:49;;;;;;;4.90;1.90;;;;;28.00;97700.20;;;;110913;1251;41634;-68
2022/05/15 08:15:18;;;;;;;5.40;2.50;;;;;28.62;97702.20;;;;110907;1250;41148;-67
2022/05/15 08:17:47;;;;;;;7.50;2.90;;;;;29.20;97697.80;;;;110854;1251;41276;-68
2022/05/15 08:25:52;;;;;;;7.00;3.00;;;;;29.14;97686.00;;;;110681;1251;42432;-67
2022/05/15 08:28:21;;;;;;;8.30;2.60;;;;;28.54;97687.40;;;;110883;1250;41127;-67
2022/05/15 08:30:50;;;;;;;8.10;3.30;;;;;28.60;97700.00;;;;110856;1250;41152;-67
2022/05/15 08:33:21;;;;;;;;;;;;;28.60;97696.20;;;;110896;1250;42144;-68
2022/05/15 08:35:51;;;;;;;9.30;4.90;;;;;28.50;97694.60;;;;110932;1250;41149;-68
2022/05/15 08:38:22;;;;;;;10.40;3.90;;;;;28.18;97700.20;;;;110874;1250;41619;-69
2022/05/15 08:41:29;;;;;;;8.70;3.70;;;;;27.58;97701.60;;;;110665;1252;41146;-66
2022/05/15 08:44:16;;;;;;;10.70;3.50;;;;;27.12;97703.00;;;;110638;1251;41136;-67
2022/05/15 08:46:48;;;;;;;10.80;3.20;;;;;27.26;97701.40;;;;110700;1250;41182;-67
2022/05/15 08:49:39;;;;;;;11.40;4.70;;;;;27.92;97693.20;;;;110691;1250;41144;-67
2022/05/15 08:52:20;;;;;;;8.20;2.70;;;;;28.64;97688.80;;;;110874;1250;41370;-69
2022/05/15 08:54:54;;;;;;;7.30;2.70;;;;;29.30;97691.20;;;;110923;1250;41154;-67
2022/05/15 08:57:57;;;;;;;7.30;2.60;;;;;29.82;97685.20;;;;110769;1252;41262;-69
2022/05/15 09:00:42;;;;;;;5.50;2.20;;;;;30.92;97686.40;;;;110832;1251;41134;-66
2022/05/15 09:03:31;;;;;;;7.10;2.30;;;;;31.72;97684.80;;;;110626;1251;41211;-68
2022/05/15 09:06:16;;;;;;;6.20;2.10;;;;;32.16;97675.80;;;;110579;1253;41718;-66
2022/05/15 09:09:10;;;;;;;5.90;2.10;;;;;32.76;97680.40;;;;110843;1250;41258;-68
2022/05/15 09:11:49;;;;;;;4.10;1.80;;;;;33.20;97676.80;;;;110862;1250;41266;-69
2022/05/15 09:14:39;;;;;;;7.00;1.90;;;;;33.58;97678.40;;;;110750;1252;41159;-67
2022/05/15 09:17:15;;;;;;;6.10;1.90;;;;;33.80;97681.60;;;;110983;1252;41139;-68
2022/05/15 09:19:51;;;;;;;5.30;1.80;;;;;34.00;97678.80;;;;110546;1252;41154;-67
2022/05/15 09:22:26;;;;;;;4.40;1.70;;;;;34.28;97675.60;;;;110742;1253;42359;-70
2022/05/15 09:25:13;;;;;;;4.60;1.70;;;;;34.60;97678.40;;;;110823;1251;41348;-67
2022/05/15 09:27:57;;;;;;;8.00;2.00;;;;;34.80;97676.40;;;;110652;1251;41146;-69
2022/05/15 09:30:44;;;;;;;4.20;1.70;;;;;34.50;97673.00;;;;110557;1251;41912;-69
2022/05/15 09:33:24;;;;;;;4.90;1.60;;;;;34.48;97664.40;;;;110910;1250;41374;-67
2022/05/15 09:36:17;;;;;;;3.70;1.60;;;;;34.10;97676.00;;;;110832;1250;41434;-69
2022/05/15 09:38:48;;;;;;;3.60;1.60;;;;;34.26;97664.00;;;;110905;1252;41264;-69
2022/05/15 09:44:29;;;;;;;4.80;1.60;;;;;34.72;97664.40;;;;110993;1250;41151;-68
2022/05/15 09:47:31;;;;;;;3.30;1.70;;;;;34.64;97667.60;;;;110722;1250;42667;-68
2022/05/15 09:50:00;;;;;;;4.00;1.50;;;;;34.78;97662.00;;;;110821;1251;41670;-69
2022/05/15 09:52:40;;;;;;;6.40;1.50;;;;;35.14;97654.60;;;;110711;1253;42447;-68
2022/05/15 09:55:12;;;;;;;4.10;1.70;;;;;35.66;97658.60;;;;110676;1250;41257;-68
2022/05/15 09:57:52;;;;;;;3.20;1.50;;;;;35.56;97656.60;;;;107076;1250;4567629;-66
2022/05/15 10:00:25;;;;;;;4.80;1.60;;;;;35.38;97656.80;;;;110668;1252;41155;-67
2022/05/15 10:03:03;;;;;;;6.10;1.80;;;;;34.90;97650.00;;;;110837;1252;41156;-69
2022/05/15 10:05:35;;;;;;;4.50;1.50;;;;;34.60;97649.20;;;;110753;1251;41143;-68
2022/05/15 10:08:06;;;;;;;6.00;1.70;;;;;34.30;97653.20;;;;110671;1250;41866;-68
2022/05/15 10:11:13;;;;;;;5.50;1.70;;;;;34.02;97661.80;;;;110867;1252;41151;-68
2022/05/15 10:13:44;;;;;;;5.20;1.70;;;;;33.30;97653.80;;;;110283;1259;41517;-67
2022/05/15 10:16:21;;;;;;;4.50;1.90;;;;;32.92;97656.60;;;;110228;1260;41265;-66
2022/05/15 10:19:12;;;;;;;8.50;3.50;;;;;32.32;97653.80;;;;110111;1259;41712;-67
2022/05/15 10:21:44;;;;;;;4.80;1.80;;;;;31.80;97656.00;;;;110114;1258;41160;-68
2022/05/15 10:24:19;;;;;;;9.50;2.30;;;;;31.10;97658.40;;;;110116;1259;41273;-67
2022/05/15 10:27:05;;;;;;;4.80;1.90;;;;;30.36;97662.80;;;;110250;1259;41157;-68
2022/05/15 10:29:58;;;;;;;4.80;1.70;;;;;30.00;97664.40;;;;110190;1258;41722;-68
2022/05/15 10:32:31;;;;;;;4.70;1.60;;;;;29.70;97660.80;;;;110224;1258;41201;-69
2022/05/15 10:35:00;;;;;;;3.80;1.70;;;;;29.62;97653.80;;;;110298;1259;41159;-69
2022/05/15 10:37:51;;;;;;;4.60;1.80;;;;;30.10;97651.60;;;;110315;1259;41161;-69
2022/05/15 10:40:40;;;;;;;6.20;2.10;;;;;30.50;97651.60;;;;110353;1257;41553;-69
2022/05/15 10:43:27;;;;;;;9.20;3.80;;;;;30.80;97652.60;;;;110062;1259;41581;-68
2022/05/15 10:46:19;;;;;;;20.40;11.60;;;;;30.50;97657.40;;;;110271;1259;41167;-70
2022/05/15 10:49:28;;;;;;;9.80;4.30;;;;;30.10;97660.80;;;;110324;1253;41172;-69
2022/05/15 10:52:29;;;;;;;13.80;7.00;;;;;30.08;97662.20;;;;110643;1250;41156;-69
2022/05/15 10:58:28;;;;;;;43.90;27.20;;;;;30.72;97650.00;;;;110834;1250;41143;-69
2022/05/15 11:01:04;;;;;;;9.10;3.90;;;;;31.02;97651.80;;;;110913;1250;41500;-69
2022/05/15 11:03:50;;;;;;;6.60;2.90;;;;;31.00;97647.60;;;;110906;1249;41334;-69
2022/05/15 11:06:44;;;;;;;4.80;1.80;;;;;30.60;97653.20;;;;110854;1250;41632;-70
2022/05/15 11:09:21;;;;;;;3.50;1.60;;;;;30.50;97649.60;;;;110808;1249;42560;-69
2022/05/15 11:12:16;;;;;;;5.30;1.80;;;;;30.50;97642.80;;;;110839;1250;41411;-69
2022/05/15 11:14:50;;;;;;;4.80;1.80;;;;;30.70;97644.00;;;;110795;1250;41580;-70
2022/05/15 11:17:48;;;;;;;6.00;2.30;;;;;30.80;97634.60;;;;110812;1250;41636;-69
2022/05/15 11:20:26;;;;;;;11.80;4.10;;;;;31.60;97642.40;;;;110768;1251;41131;-68
2022/05/15 11:23:20;;;;;;;11.10;5.50;;;;;31.60;97638.00;;;;110860;1250;41871;-70
2022/05/15 11:25:55;;;;;;;8.10;2.80;;;;;31.16;97645.60;;;;110986;1250;41912;-67
2022/05/15 11:28:27;;;;;;;13.60;6.60;;;;;31.00;97647.60;;;;110757;1252;41159;-69
2022/05/15 11:31:04;;;;;;;8.20;3.70;;;;;30.72;97639.80;;;;110838;1252;41177;-70
2022/05/15 11:33:58;;;;;;;4.60;1.90;;;;;30.84;97631.20;;;;110862;1250;41157;-70
2022/05/15 11:36:30;;;;;;;4.60;1.70;;;;;31.66;97619.40;;;;110824;1251;41160;-67
2022/05/15 11:39:15;;;;;;;3.40;1.70;;;;;32.68;97618.00;;;;110877;1251;43004;-69
2022/05/15 11:41:44;;;;;;;14.60;7.10;;;;;33.62;97617.20;;;;110887;1250;41759;-70
2022/05/15 11:44:20;;;;;;;6.40;2.20;;;;;34.44;97612.80;;;;110901;1250;41163;-69
2022/05/15 11:46:55;;;;;;;4.90;1.80;;;;;35.06;97612.60;;;;110901;1251;41259;-70
2022/05/15 11:49:38;;;;;;;4.40;2.00;;;;;35.50;97617.40;;;;110871;1250;41767;-70
2022/05/15 11:52:11;;;;;;;5.40;2.00;;;;;35.04;97613.00;;;;110825;1251;41169;-69
2022/05/15 11:54:47;;;;;;;6.30;2.10;;;;;34.50;97604.60;;;;110842;1251;41610;-70
2022/05/15 11:57:42;;;;;;;5.60;2.20;;;;;34.72;97605.20;;;;110915;1249;41569;-69
2022/05/15 12:00:22;;;;;;;4.50;1.60;;;;;34.18;97616.20;;;;110680;1252;41140;-69
2022/05/15 12:02:57;;;;;;;5.90;2.00;;;;;34.00;97614.40;;;;110665;1250;41509;-69
2022/05/15 12:05:37;;;;;;;6.60;1.80;;;;;33.96;97611.00;;;;110827;1250;41709;-68
2022/05/15 12:08:34;;;;;;;5.90;2.10;;;;;33.60;97605.40;;;;110582;1253;41159;-69
2022/05/15 12:11:18;;;;;;;4.50;1.60;;;;;33.58;97610.60;;;;110711;1251;41418;-69
2022/05/15 12:13:47;;;;;;;4.30;1.60;;;;;34.08;97599.80;;;;110865;1251;41629;-70
2022/05/15 12:16:16;;;;;;;4.40;1.70;;;;;33.62;97607.60;;;;110821;1253;41137;-67
2022/05/15 12:18:49;;;;;;;7.60;1.60;;;;;32.96;97612.20;;;;110835;1250;41888;-70
2022/05/15 12:21:23;;;;;;;3.00;1.30;;;;;32.14;97612.80;;;;110804;1252;42176;-67
2022/05/15 12:26:55;;;;;;;4.20;1.70;;;;;31.80;97618.60;;;;110951;1250;42125;-68
2022/05/15 12:29:38;;;;;;;4.30;1.90;;;;;31.10;97618.20;;;;110766;1251;41155;-67
2022/05/15 12:32:09;;;;;;;4.60;1.90;;;;;30.60;97611.60;;;;110754;1250;41940;-68
2022/05/15 12:34:46;;;;;;;5.70;2.20;;;;;30.48;97602.80;;;;110890;1253;41155;-67
2022/05/15 12:37:24;;;;;;;5.30;1.70;;;;;30.10;97606.40;;;;110729;1249;41270;-67
2022/05/15 12:39:58;;;;;;;3.90;1.70;;;;;29.90;97602.40;;;;110803;1251;41133;-67
2022/05/15 12:42:36;;;;;;;5.60;1.80;;;;;29.90;97603.60;;;;110996;1250;41167;-70
2022/05/15 12:45:10;;;;;;;4.50;1.90;;;;;29.80;97601.00;;;;110678;1253;41160;-69
2022/05/15 12:47:40;;;;;;;3.30;1.70;;;;;29.62;97595.40;;;;110772;1250;41158;-70
2022/05/15 12:50:20;;;;;;;5.00;1.90;;;;;29.40;97597.20;;;;110785;1250;41914;-70
2022/05/15 12:52:53;;;;;;;4.20;1.80;;;;;29.30;97596.20;;;;110902;1250;41333;-70
2022/05/15 12:55:32;;;;;;;5.50;1.90;;;;;29.22;97592.40;;;;110808;1250;41158;-69
2022/05/15 12:58:05;;;;;;;4.80;1.80;;;;;29.30;97587.00;;;;110728;1253;41166;-68
2022/05/15 13:00:42;;;;;;;7.60;1.90;;;;;29.20;97589.60;;;;110709;1253;41144;-68
2022/05/15 13:03:12;;;;;;;5.60;2.20;;;;;28.84;97589.20;;;;110853;1250;41162;-71
2022/05/15 13:05:47;;;;;;;7.10;2.60;;;;;28.80;97584.40;;;;111497;1244;41932;-69
2022/05/15 13:08:17;;;;;;;6.80;2.20;;;;;28.82;97578.80;;;;111613;1244;41134;-69
2022/05/15 13:11:01;;;;;;;6.00;2.10;;;;;28.72;97576.00;;;;111765;1243;41241;-70